Time;durP1;ratioP1;P1;durP2;ratioP2;P2;SDS_P1;SDS_P2;PMS_P1;PMS_P2;Temp;Humidity;BMP_temperature;BMP_pressure;BME280_temperature;BME280_humidity;BME280_pressure;Samples;Min_cycle;Max_cycle;Signal;HPM_P1;HPM_P2
2022/03/04 00:01:53;;;;;;;6.95;2.67;;;;;;;;;;5001134;28;20038;-59
2022/03/04 00:04:19;;;;;;;8.48;1.55;;;;;;;;;;5006133;28;20109;-58
2022/03/04 00:06:45;;;;;;;5.53;2.55;;;;;;;;;;4997327;28;20106;-60
2022/03/04 00:09:11;;;;;;;3.28;1.38;;;;;;;;;;4999074;28;20118;-58
2022/03/04 00:11:37;;;;;;;5.95;2.70;;;;;;;;;;4987658;28;20140;-59
2022/03/04 00:14:03;;;;;;;4.60;1.83;;;;;;;;;;5031786;28;20042;-57
2022/03/04 00:16:29;;;;;;;6.25;2.63;;;;;;;;;;4996619;28;20075;-58
2022/03/04 00:19:07;;;;;;;5.38;2.53;;;;;;;;;;4998806;28;20038;-57
2022/03/04 00:21:37;;;;;;;5.47;2.30;;;;;;;;;;5001137;28;20044;-57
2022/03/04 00:24:04;;;;;;;1.83;0.80;;;;;;;;;;5001339;28;20073;-57
2022/03/04 00:26:32;;;;;;;3.80;1.60;;;;;;;;;;5012295;28;20030;-56
2022/03/04 00:28:58;;;;;;;3.42;1.17;;;;;;;;;;5002238;28;20636;-59
2022/03/04 00:31:24;;;;;;;3.80;1.92;;;;;;;;;;4999874;28;20033;-59
2022/03/04 00:33:51;;;;;;;2.58;0.77;;;;;;;;;;4998249;28;20385;-60
2022/03/04 00:36:17;;;;;;;4.80;1.95;;;;;;;;;;5002532;28;20046;-59
2022/03/04 00:38:43;;;;;;;4.53;2.05;;;;;;;;;;5032712;28;20033;-59
2022/03/04 00:41:09;;;;;;;3.95;1.95;;;;;;;;;;5006268;28;20041;-57
2022/03/04 00:43:35;;;;;;;5.15;2.08;;;;;;;;;;4998397;28;20061;-58
2022/03/04 00:46:00;;;;;;;9.18;2.85;;;;;;;;;;5029809;28;20157;-59
2022/03/04 00:48:26;;;;;;;7.45;2.92;;;;;;;;;;4998581;28;20038;-59
2022/03/04 00:50:52;;;;;;;4.60;1.92;;;;;;;;;;5000359;28;20115;-59
2022/03/04 00:53:18;;;;;;;4.63;2.10;;;;;;;;;;5001438;28;20045;-57
2022/03/04 00:55:44;;;;;;;6.90;3.10;;;;;;;;;;5000883;28;21748;-58
2022/03/04 00:58:10;;;;;;;6.30;2.67;;;;;;;;;;4997258;28;20050;-58
2022/03/04 01:00:36;;;;;;;5.68;2.38;;;;;;;;;;4997048;28;20046;-58
2022/03/04 01:03:03;;;;;;;3.08;1.17;;;;;;;;;;5001090;28;20038;-58
2022/03/04 01:05:29;;;;;;;4.68;2.28;;;;;;;;;;5000555;28;20026;-60
2022/03/04 01:07:55;;;;;;;1.77;1.02;;;;;;;;;;4996281;28;20043;-59
2022/03/04 01:10:21;;;;;;;3.00;1.45;;;;;;;;;;4999348;28;20131;-59
2022/03/04 01:12:47;;;;;;;5.63;2.88;;;;;;;;;;5000002;28;20548;-59
2022/03/04 01:15:13;;;;;;;7.25;2.28;;;;;;;;;;4996143;28;20046;-58
2022/03/04 01:17:39;;;;;;;6.47;2.38;;;;;;;;;;4996991;28;20112;-59
2022/03/04 01:20:06;;;;;;;4.70;2.22;;;;;;;;;;5013407;28;20109;-61
2022/03/04 01:22:32;;;;;;;4.72;1.88;;;;;;;;;;5012775;28;20057;-58
2022/03/04 01:25:01;;;;;;;6.32;2.80;;;;;;;;;;4998375;28;20049;-60
2022/03/04 01:27:27;;;;;;;11.60;2.28;;;;;;;;;;4997318;28;20560;-59
2022/03/04 01:29:53;;;;;;;3.65;1.10;;;;;;;;;;5000778;28;20042;-59
2022/03/04 01:32:19;;;;;;;3.85;1.70;;;;;;;;;;5000923;28;20034;-61
2022/03/04 01:34:45;;;;;;;4.65;1.58;;;;;;;;;;5002334;28;20037;-58
2022/03/04 01:37:11;;;;;;;6.82;2.38;;;;;;;;;;5011437;28;20095;-56
2022/03/04 01:39:37;;;;;;;5.05;1.70;;;;;;;;;;5005205;28;20841;-59
2022/03/04 01:42:03;;;;;;;2.42;1.10;;;;;;;;;;5003734;28;20040;-59
2022/03/04 01:44:29;;;;;;;8.20;2.15;;;;;;;;;;5000266;28;20057;-59
2022/03/04 01:46:55;;;;;;;6.15;2.65;;;;;;;;;;4999495;28;20038;-58
2022/03/04 01:49:21;;;;;;;3.03;1.27;;;;;;;;;;4997784;28;20050;-60
2022/03/04 01:51:47;;;;;;;4.68;2.03;;;;;;;;;;4999949;28;20041;-57
2022/03/04 01:54:13;;;;;;;2.92;1.13;;;;;;;;;;4997533;28;20503;-60
2022/03/04 01:56:40;;;;;;;5.22;2.08;;;;;;;;;;5000609;28;20038;-58
2022/03/04 01:59:06;;;;;;;3.17;1.58;;;;;;;;;;5001844;28;20042;-60
2022/03/04 02:01:32;;;;;;;4.93;2.25;;;;;;;;;;5000641;28;20404;-60
2022/03/04 02:03:59;;;;;;;3.92;1.48;;;;;;;;;;4998811;28;20085;-57
2022/03/04 02:06:24;;;;;;;6.22;2.40;;;;;;;;;;5007891;28;20113;-59
2022/03/04 02:08:51;;;;;;;6.90;1.60;;;;;;;;;;5001347;28;21769;-57
2022/03/04 02:11:17;;;;;;;3.53;1.50;;;;;;;;;;4999014;28;20423;-59
2022/03/04 02:13:43;;;;;;;4.60;2.15;;;;;;;;;;4997798;28;20609;-59
2022/03/04 02:16:25;;;;;;;6.95;2.85;;;;;;;;;;5000757;28;20177;-60
2022/03/04 02:18:51;;;;;;;6.60;2.55;;;;;;;;;;5002191;28;20387;-59
2022/03/04 02:21:20;;;;;;;5.00;2.17;;;;;;;;;;5002252;28;20038;-58
2022/03/04 02:23:47;;;;;;;6.30;2.90;;;;;;;;;;5001612;28;20045;-59
2022/03/04 02:26:13;;;;;;;5.40;3.03;;;;;;;;;;5003144;28;20163;-58
2022/03/04 02:28:38;;;;;;;13.40;3.70;;;;;;;;;;5006458;28;20057;-56
2022/03/04 02:31:04;;;;;;;4.50;1.80;;;;;;;;;;5004457;28;20192;-59
2022/03/04 02:33:30;;;;;;;9.40;3.47;;;;;;;;;;5001995;28;20072;-59
2022/03/04 02:35:56;;;;;;;8.15;3.30;;;;;;;;;;5002580;28;20472;-59
2022/03/04 02:38:22;;;;;;;9.75;3.63;;;;;;;;;;5002971;28;20103;-58
2022/03/04 02:40:48;;;;;;;1.70;1.27;;;;;;;;;;5006250;28;20104;-59
2022/03/04 02:43:14;;;;;;;9.63;4.22;;;;;;;;;;5004064;28;20046;-58
2022/03/04 02:45:40;;;;;;;3.58;1.80;;;;;;;;;;5005874;28;20046;-57
2022/03/04 02:48:06;;;;;;;9.25;3.65;;;;;;;;;;5020902;28;20046;-57
2022/03/04 02:50:32;;;;;;;9.50;3.70;;;;;;;;;;5009436;28;20038;-60
2022/03/04 02:52:58;;;;;;;9.35;4.13;;;;;;;;;;5006963;28;20494;-60
2022/03/04 02:55:24;;;;;;;6.32;3.78;;;;;;;;;;5000593;28;20068;-58
2022/03/04 02:57:50;;;;;;;10.40;4.15;;;;;;;;;;5002055;28;20037;-59
2022/03/04 03:00:17;;;;;;;8.38;2.92;;;;;;;;;;5028763;28;20050;-59
2022/03/04 03:02:43;;;;;;;6.43;2.80;;;;;;;;;;5001834;28;20034;-58
2022/03/04 03:05:10;;;;;;;12.35;4.13;;;;;;;;;;5006400;28;20149;-58
2022/03/04 03:07:36;;;;;;;8.93;4.32;;;;;;;;;;5001766;28;20132;-58
2022/03/04 03:10:02;;;;;;;13.25;4.57;;;;;;;;;;5001453;28;20136;-59
2022/03/04 03:12:29;;;;;;;9.30;3.65;;;;;;;;;;5016819;28;20058;-55
2022/03/04 03:14:57;;;;;;;5.97;3.03;;;;;;;;;;5000465;28;20077;-58
2022/03/04 03:17:26;;;;;;;9.57;4.22;;;;;;;;;;4998773;28;20066;-57
2022/03/04 03:19:52;;;;;;;7.22;2.88;;;;;;;;;;5001932;28;20041;-59
2022/03/04 03:22:19;;;;;;;8.07;3.58;;;;;;;;;;5010334;28;20061;-58
2022/03/04 03:24:45;;;;;;;7.20;3.58;;;;;;;;;;5002028;28;20116;-58
2022/03/04 03:27:11;;;;;;;5.68;2.72;;;;;;;;;;5005655;28;20066;-59
2022/03/04 03:29:37;;;;;;;7.00;2.72;;;;;;;;;;5003293;28;20111;-61
2022/03/04 03:32:04;;;;;;;6.75;3.60;;;;;;;;;;5002808;28;20034;-61
2022/03/04 03:34:29;;;;;;;7.15;3.85;;;;;;;;;;4996690;28;20120;-59
2022/03/04 03:36:58;;;;;;;9.32;4.05;;;;;;;;;;4997651;28;20681;-58
2022/03/04 03:39:25;;;;;;;9.82;4.38;;;;;;;;;;5030094;28;20045;-58
2022/03/04 03:41:50;;;;;;;12.30;4.70;;;;;;;;;;4999134;28;20152;-59
2022/03/04 03:44:16;;;;;;;10.65;4.75;;;;;;;;;;5000590;28;20053;-57
2022/03/04 03:46:42;;;;;;;12.13;4.95;;;;;;;;;;4996597;28;20063;-58
2022/03/04 03:49:08;;;;;;;6.93;4.32;;;;;;;;;;5027156;28;20080;-59
2022/03/04 03:51:34;;;;;;;11.05;4.60;;;;;;;;;;4998920;28;20389;-58
2022/03/04 03:54:00;;;;;;;8.68;4.88;;;;;;;;;;4996190;28;20042;-59
2022/03/04 03:56:30;;;;;;;7.63;3.97;;;;;;;;;;5001691;28;21303;-60
2022/03/04 03:58:58;;;;;;;4.95;2.53;;;;;;;;;;4999117;28;20054;-59
2022/03/04 04:01:25;;;;;;;9.25;4.05;;;;;;;;;;4998809;28;20058;-60
2022/03/04 04:03:51;;;;;;;3.53;2.40;;;;;;;;;;5001789;28;20075;-60
2022/03/04 04:06:20;;;;;;;14.25;5.80;;;;;;;;;;5023747;28;20087;-60
2022/03/04 04:08:46;;;;;;;10.15;3.50;;;;;;;;;;4997643;28;20148;-58
2022/03/04 04:11:12;;;;;;;10.57;4.30;;;;;;;;;;4993043;28;20097;-58
2022/03/04 04:13:39;;;;;;;9.70;4.35;;;;;;;;;;4999460;28;20042;-61
2022/03/04 04:16:05;;;;;;;7.97;3.85;;;;;;;;;;4999540;28;20068;-59
2022/03/04 04:18:31;;;;;;;6.35;2.75;;;;;;;;;;5025934;28;20045;-59
2022/03/04 04:20:57;;;;;;;6.90;3.72;;;;;;;;;;5049695;28;20033;-60
2022/03/04 04:23:26;;;;;;;6.63;3.38;;;;;;;;;;5035031;28;20056;-60
2022/03/04 04:25:52;;;;;;;6.70;3.20;;;;;;;;;;5027112;28;20037;-58
2022/03/04 04:28:18;;;;;;;11.18;6.03;;;;;;;;;;5032674;28;20551;-58
2022/03/04 04:30:44;;;;;;;10.57;3.25;;;;;;;;;;5032178;28;20155;-57
2022/03/04 04:33:10;;;;;;;11.10;4.93;;;;;;;;;;5032964;28;21766;-59
2022/03/04 04:35:36;;;;;;;9.98;4.53;;;;;;;;;;5031460;28;20068;-59
2022/03/04 04:38:02;;;;;;;10.88;5.13;;;;;;;;;;5033387;28;20071;-60
2022/03/04 04:40:28;;;;;;;12.80;5.90;;;;;;;;;;5030672;28;20120;-60
2022/03/04 04:42:54;;;;;;;5.43;2.85;;;;;;;;;;5032544;28;20041;-58
2022/03/04 04:45:20;;;;;;;10.35;5.55;;;;;;;;;;5033261;28;20044;-58
2022/03/04 04:47:46;;;;;;;12.10;6.30;;;;;;;;;;5034509;28;20056;-59
2022/03/04 04:50:12;;;;;;;10.20;4.65;;;;;;;;;;5033175;28;20037;-60
2022/03/04 04:52:38;;;;;;;15.13;7.20;;;;;;;;;;5033309;28;20048;-60
2022/03/04 04:55:07;;;;;;;13.73;6.40;;;;;;;;;;5027997;28;20037;-60
2022/03/04 04:57:34;;;;;;;9.32;4.78;;;;;;;;;;4995798;28;20535;-60
2022/03/04 04:59:59;;;;;;;10.57;3.95;;;;;;;;;;4998087;28;20041;-60
2022/03/04 05:02:25;;;;;;;6.43;3.13;;;;;;;;;;5005531;28;20046;-61
2022/03/04 05:04:51;;;;;;;15.50;5.15;;;;;;;;;;4997734;28;20061;-59
2022/03/04 05:07:17;;;;;;;4.43;2.88;;;;;;;;;;4995877;28;20061;-61
2022/03/04 05:09:43;;;;;;;8.57;5.25;;;;;;;;;;4998577;28;20474;-60
2022/03/04 05:12:09;;;;;;;8.05;4.30;;;;;;;;;;5002661;28;20042;-61
2022/03/04 05:14:35;;;;;;;10.57;3.13;;;;;;;;;;5001384;28;20792;-60
2022/03/04 05:17:04;;;;;;;12.00;5.38;;;;;;;;;;5012687;28;20053;-61
2022/03/04 05:19:30;;;;;;;10.25;4.65;;;;;;;;;;4996943;28;21766;-60
2022/03/04 05:21:56;;;;;;;9.57;5.22;;;;;;;;;;4995583;28;20042;-59
2022/03/04 05:24:22;;;;;;;7.40;4.05;;;;;;;;;;4995630;28;20053;-59
2022/03/04 05:26:49;;;;;;;8.48;4.50;;;;;;;;;;4998808;28;20058;-60
2022/03/04 05:29:15;;;;;;;13.93;5.75;;;;;;;;;;4998840;28;20078;-57
2022/03/04 05:31:42;;;;;;;11.27;5.13;;;;;;;;;;4996936;28;20096;-60
2022/03/04 05:34:08;;;;;;;6.20;3.28;;;;;;;;;;4996775;28;20886;-61
2022/03/04 05:36:34;;;;;;;6.53;3.25;;;;;;;;;;4996189;28;20059;-60
2022/03/04 05:39:00;;;;;;;6.65;3.55;;;;;;;;;;4998716;28;20038;-60
2022/03/04 05:41:26;;;;;;;4.55;2.70;;;;;;;;;;5001631;28;20049;-61
2022/03/04 05:43:51;;;;;;;5.05;2.50;;;;;;;;;;5008071;28;20101;-60
2022/03/04 05:46:17;;;;;;;8.95;4.38;;;;;;;;;;5009342;28;20033;-61
2022/03/04 05:48:43;;;;;;;6.70;3.92;;;;;;;;;;5002654;28;20041;-59
2022/03/04 05:51:10;;;;;;;15.00;5.85;;;;;;;;;;4998675;28;20062;-59
2022/03/04 05:53:36;;;;;;;16.33;2.22;;;;;;;;;;4996469;28;20546;-61
2022/03/04 05:56:03;;;;;;;2.47;1.38;;;;;;;;;;4997912;28;20033;-58
2022/03/04 05:58:29;;;;;;;4.93;2.67;;;;;;;;;;4996613;28;20045;-60
2022/03/04 06:00:55;;;;;;;1.20;0.75;;;;;;;;;;4998432;28;20045;-60
2022/03/04 06:03:21;;;;;;;8.13;4.05;;;;;;;;;;4997348;28;20041;-59
2022/03/04 06:05:47;;;;;;;10.25;5.35;;;;;;;;;;4998154;28;20043;-59
2022/03/04 06:08:13;;;;;;;9.63;3.75;;;;;;;;;;4997452;28;20033;-60
2022/03/04 06:10:38;;;;;;;7.07;4.03;;;;;;;;;;4995573;28;20150;-60
2022/03/04 06:13:04;;;;;;;14.65;4.15;;;;;;;;;;4996277;28;20499;-59
2022/03/04 06:15:30;;;;;;;5.30;2.75;;;;;;;;;;4994655;28;20042;-60
2022/03/04 06:17:56;;;;;;;10.07;3.60;;;;;;;;;;4996950;28;20042;-60
2022/03/04 06:20:22;;;;;;;10.35;4.53;;;;;;;;;;4995167;28;20045;-60
2022/03/04 06:22:48;;;;;;;5.35;2.67;;;;;;;;;;4993700;28;20043;-59
2022/03/04 06:25:15;;;;;;;8.77;4.18;;;;;;;;;;4994566;28;20088;-59
2022/03/04 06:27:52;;;;;;;3.45;1.77;;;;;;;;;;4997852;28;20050;-59
2022/03/04 06:30:18;;;;;;;2.47;1.42;;;;;;;;;;4995508;28;20041;-55
2022/03/04 06:32:46;;;;;;;4.72;2.50;;;;;;;;;;4997176;28;20049;-59
2022/03/04 06:35:12;;;;;;;5.07;2.45;;;;;;;;;;4997657;28;20421;-59
2022/03/04 06:37:38;;;;;;;6.88;2.22;;;;;;;;;;4999150;28;20077;-59
2022/03/04 06:40:06;;;;;;;6.40;2.85;;;;;;;;;;5001372;28;20740;-59
2022/03/04 06:42:33;;;;;;;6.10;3.15;;;;;;;;;;5009113;28;20034;-59
2022/03/04 06:44:59;;;;;;;4.80;2.55;;;;;;;;;;5001556;28;20784;-58
2022/03/04 06:47:24;;;;;;;2.67;2.20;;;;;;;;;;5001066;28;20085;-58
2022/03/04 06:49:50;;;;;;;9.35;3.63;;;;;;;;;;5001323;28;20451;-59
2022/03/04 06:52:16;;;;;;;7.38;4.13;;;;;;;;;;4999397;28;20088;-60
2022/03/04 06:54:42;;;;;;;7.55;3.03;;;;;;;;;;5001970;28;20065;-59
2022/03/04 06:57:08;;;;;;;6.47;2.42;;;;;;;;;;5000520;28;20056;-59
2022/03/04 06:59:35;;;;;;;8.38;3.30;;;;;;;;;;4998825;28;20494;-59
2022/03/04 07:02:01;;;;;;;6.75;2.25;;;;;;;;;;5002697;28;20038;-59
2022/03/04 07:04:27;;;;;;;11.80;4.10;;;;;;;;;;4998735;28;20042;-59
2022/03/04 07:06:53;;;;;;;7.20;2.72;;;;;;;;;;5001139;28;20030;-59
2022/03/04 07:09:19;;;;;;;7.50;2.17;;;;;;;;;;4998599;28;20053;-59
2022/03/04 07:11:44;;;;;;;7.60;3.42;;;;;;;;;;5000352;28;20050;-59
2022/03/04 07:14:11;;;;;;;6.65;3.75;;;;;;;;;;4996910;28;20065;-59
2022/03/04 07:16:36;;;;;;;13.75;2.58;;;;;;;;;;5032628;28;21803;-58
2022/03/04 07:19:03;;;;;;;4.55;2.78;;;;;;;;;;4999714;28;20117;-58
2022/03/04 07:21:29;;;;;;;5.43;2.55;;;;;;;;;;5002887;28;20044;-58
2022/03/04 07:23:55;;;;;;;5.65;2.70;;;;;;;;;;5003778;28;20054;-57
2022/03/04 07:26:21;;;;;;;3.72;1.45;;;;;;;;;;4999758;28;20037;-57
2022/03/04 07:28:47;;;;;;;10.55;5.45;;;;;;;;;;5000798;28;20532;-58
2022/03/04 07:31:14;;;;;;;4.22;2.13;;;;;;;;;;4999325;28;20034;-58
2022/03/04 07:33:40;;;;;;;6.97;3.30;;;;;;;;;;4999949;28;20631;-58
2022/03/04 07:36:06;;;;;;;6.35;3.85;;;;;;;;;;5030272;28;20065;-58
2022/03/04 07:38:32;;;;;;;7.72;3.90;;;;;;;;;;5001279;28;20441;-57
2022/03/04 07:41:01;;;;;;;10.35;3.70;;;;;;;;;;5000519;28;20045;-59
2022/03/04 07:43:26;;;;;;;8.85;4.60;;;;;;;;;;4997669;28;20076;-57
2022/03/04 07:45:53;;;;;;;9.57;4.82;;;;;;;;;;4998789;28;20890;-58
2022/03/04 07:48:18;;;;;;;9.98;4.28;;;;;;;;;;4999758;28;20092;-59
2022/03/04 07:50:44;;;;;;;10.40;4.80;;;;;;;;;;4997617;28;20462;-58
2022/03/04 07:53:16;;;;;;;4.05;1.73;;;;;;;;;;4997380;28;20117;-59
2022/03/04 07:55:41;;;;;;;7.47;3.08;;;;;;;;;;5000087;28;20084;-58
2022/03/04 07:58:10;;;;;;;5.97;2.38;;;;;;;;;;4999592;28;20033;-57
2022/03/04 08:00:36;;;;;;;11.95;4.93;;;;;;;;;;4998710;28;20038;-59
2022/03/04 08:03:02;;;;;;;7.40;3.97;;;;;;;;;;5007302;28;20034;-59
2022/03/04 08:05:28;;;;;;;4.18;1.85;;;;;;;;;;4998193;28;20056;-58
2022/03/04 08:07:55;;;;;;;5.78;2.17;;;;;;;;;;5000106;28;20046;-58
2022/03/04 08:10:20;;;;;;;5.93;1.90;;;;;;;;;;5006901;28;20046;-59
2022/03/04 08:12:46;;;;;;;12.77;5.25;;;;;;;;;;5028495;28;20067;-57
2022/03/04 08:15:12;;;;;;;7.20;2.88;;;;;;;;;;5001185;28;20041;-58
2022/03/04 08:17:46;;;;;;;7.30;3.72;;;;;;;;;;4997376;28;20045;-58
2022/03/04 08:20:12;;;;;;;14.15;5.07;;;;;;;;;;5008985;28;20038;-57
2022/03/04 08:22:38;;;;;;;9.25;4.35;;;;;;;;;;4998643;28;22567;-59
2022/03/04 08:25:05;;;;;;;6.85;3.47;;;;;;;;;;5017110;28;20048;-59
2022/03/04 08:27:35;;;;;;;8.90;3.72;;;;;;;;;;5001495;28;20034;-59
2022/03/04 08:30:01;;;;;;;8.93;4.53;;;;;;;;;;4999315;28;20459;-59
2022/03/04 08:32:27;;;;;;;34.58;4.45;;;;;;;;;;5007551;28;20042;-60
2022/03/04 08:34:53;;;;;;;7.97;3.63;;;;;;;;;;4999931;28;20129;-60
2022/03/04 08:37:22;;;;;;;6.72;3.97;;;;;;;;;;4999778;28;20034;-60
2022/03/04 08:39:48;;;;;;;8.27;3.60;;;;;;;;;;5000685;28;20037;-60
2022/03/04 08:42:14;;;;;;;8.88;4.18;;;;;;;;;;4998505;28;20040;-59
2022/03/04 08:44:42;;;;;;;7.10;3.67;;;;;;;;;;4997401;28;20049;-60
2022/03/04 08:47:08;;;;;;;4.38;2.25;;;;;;;;;;4996061;28;20120;-62
2022/03/04 08:49:34;;;;;;;6.18;3.20;;;;;;;;;;4997560;28;20045;-59
2022/03/04 08:52:00;;;;;;;11.55;4.75;;;;;;;;;;4997347;28;20129;-59
2022/03/04 08:54:27;;;;;;;8.70;3.75;;;;;;;;;;4997772;28;20116;-60
2022/03/04 08:56:53;;;;;;;5.03;2.85;;;;;;;;;;4998320;28;20068;-60
2022/03/04 08:59:19;;;;;;;17.48;2.47;;;;;;;;;;4997904;28;20127;-61
2022/03/04 09:01:45;;;;;;;5.75;2.42;;;;;;;;;;4998250;28;20034;-60
2022/03/04 09:04:14;;;;;;;8.00;2.65;;;;;;;;;;5002232;28;20063;-58
2022/03/04 09:06:42;;;;;;;10.93;4.05;;;;;;;;;;5014256;28;20045;-60
2022/03/04 09:09:08;;;;;;;9.02;3.00;;;;;;;;;;5015497;28;20491;-60
2022/03/04 09:11:34;;;;;;;2.33;1.42;;;;;;;;;;5015359;28;20136;-60
2022/03/04 09:14:01;;;;;;;3.20;1.98;;;;;;;;;;4995278;28;20038;-60
2022/03/04 09:16:29;;;;;;;9.40;3.58;;;;;;;;;;4998626;28;20038;-59
2022/03/04 09:18:58;;;;;;;1.75;1.13;;;;;;;;;;4998070;28;20042;-60
2022/03/04 09:21:24;;;;;;;6.20;3.03;;;;;;;;;;5000126;28;20500;-56
2022/03/04 09:23:50;;;;;;;3.53;1.95;;;;;;;;;;4999847;28;20160;-60
2022/03/04 09:26:16;;;;;;;6.13;1.77;;;;;;;;;;5023805;28;20123;-59
2022/03/04 09:28:42;;;;;;;7.97;3.20;;;;;;;;;;4998045;28;20564;-60
2022/03/04 09:31:07;;;;;;;4.68;1.73;;;;;;;;;;4998869;28;20107;-60
2022/03/04 09:33:33;;;;;;;7.65;3.88;;;;;;;;;;5001866;28;20034;-60
2022/03/04 09:36:02;;;;;;;4.18;2.40;;;;;;;;;;5007699;28;20072;-56
2022/03/04 09:38:31;;;;;;;8.55;4.25;;;;;;;;;;5000988;28;20046;-58
2022/03/04 09:40:57;;;;;;;9.15;3.35;;;;;;;;;;5001313;28;20042;-60
2022/03/04 09:43:26;;;;;;;5.38;3.13;;;;;;;;;;4989876;28;20476;-60
2022/03/04 09:45:52;;;;;;;3.70;2.03;;;;;;;;;;4997848;28;20038;-59
2022/03/04 09:48:18;;;;;;;10.75;3.05;;;;;;;;;;4999848;28;20045;-58
2022/03/04 09:50:45;;;;;;;9.98;3.08;;;;;;;;;;5002256;28;20084;-60
2022/03/04 09:53:14;;;;;;;11.00;4.30;;;;;;;;;;5008806;28;20046;-60
2022/03/04 09:55:43;;;;;;;6.65;3.42;;;;;;;;;;5034482;28;20038;-59
2022/03/04 09:58:13;;;;;;;4.88;2.08;;;;;;;;;;5001947;28;20640;-60
2022/03/04 10:00:40;;;;;;;7.15;2.53;;;;;;;;;;4997298;28;20060;-60
2022/03/04 10:03:20;;;;;;;4.38;1.92;;;;;;;;;;5001913;28;20045;-59
2022/03/04 10:05:56;;;;;;;5.28;2.67;;;;;;;;;;4998385;28;20057;-61
2022/03/04 10:08:25;;;;;;;5.68;2.45;;;;;;;;;;4996188;28;20038;-58
2022/03/04 10:10:52;;;;;;;7.55;2.85;;;;;;;;;;4996879;28;20516;-60
2022/03/04 10:13:30;;;;;;;4.97;2.20;;;;;;;;;;4996494;28;20041;-60
2022/03/04 10:15:56;;;;;;;4.40;1.95;;;;;;;;;;4998926;28;20130;-60
2022/03/04 10:18:26;;;;;;;8.77;3.08;;;;;;;;;;5034855;28;20038;-60
2022/03/04 10:20:52;;;;;;;6.40;3.15;;;;;;;;;;5000797;28;20506;-60
2022/03/04 10:23:22;;;;;;;7.28;3.45;;;;;;;;;;4998636;28;20046;-59
2022/03/04 10:25:49;;;;;;;7.63;3.17;;;;;;;;;;5001686;28;20091;-59
2022/03/04 10:28:15;;;;;;;8.77;2.58;;;;;;;;;;4999878;28;20046;-60
2022/03/04 10:30:42;;;;;;;8.48;3.30;;;;;;;;;;4999166;28;20037;-59
2022/03/04 10:33:09;;;;;;;6.13;2.85;;;;;;;;;;5000624;28;20041;-60
2022/03/04 10:35:36;;;;;;;7.07;3.63;;;;;;;;;;5000521;28;20037;-60
2022/03/04 10:38:04;;;;;;;8.80;3.95;;;;;;;;;;5003790;28;20589;-59
2022/03/04 10:40:30;;;;;;;5.65;2.85;;;;;;;;;;4999374;28;20050;-61
2022/03/04 10:42:57;;;;;;;4.28;2.33;;;;;;;;;;5001719;28;20058;-58
2022/03/04 10:45:24;;;;;;;4.68;2.42;;;;;;;;;;4999415;28;20137;-60
2022/03/04 10:47:52;;;;;;;4.38;2.20;;;;;;;;;;4997661;28;20095;-60
2022/03/04 10:50:20;;;;;;;6.07;2.80;;;;;;;;;;5024678;28;20104;-60
2022/03/04 10:53:05;;;;;;;5.30;3.10;;;;;;;;;;5020489;28;20045;-60
2022/03/04 10:55:35;;;;;;;9.45;3.88;;;;;;;;;;4995917;28;20061;-61
2022/03/04 10:58:03;;;;;;;6.47;3.47;;;;;;;;;;5002827;28;20069;-59
2022/03/04 11:00:30;;;;;;;1.83;1.00;;;;;;;;;;5001126;28;20118;-60
2022/03/04 11:02:56;;;;;;;13.13;4.20;;;;;;;;;;5002687;28;20041;-60
2022/03/04 11:05:23;;;;;;;7.97;3.85;;;;;;;;;;4998283;28;20049;-59
2022/03/04 11:07:49;;;;;;;5.18;2.15;;;;;;;;;;4994412;28;20412;-60
2022/03/04 11:10:19;;;;;;;5.28;2.10;;;;;;;;;;5015066;28;20057;-60
2022/03/04 11:12:49;;;;;;;5.95;2.47;;;;;;;;;;5002159;28;20033;-60
2022/03/04 11:15:17;;;;;;;5.65;2.78;;;;;;;;;;5000232;28;20042;-60
2022/03/04 11:17:44;;;;;;;2.33;1.30;;;;;;;;;;5002368;28;20041;-59
2022/03/04 11:20:10;;;;;;;6.50;2.63;;;;;;;;;;5000287;28;20034;-60
2022/03/04 11:22:39;;;;;;;7.03;2.67;;;;;;;;;;5010304;28;20048;-60
2022/03/04 11:25:05;;;;;;;12.85;3.50;;;;;;;;;;5009804;28;20050;-59
2022/03/04 11:27:38;;;;;;;7.07;2.47;;;;;;;;;;4996823;28;20061;-58
2022/03/04 11:30:04;;;;;;;3.95;2.28;;;;;;;;;;4999650;28;20053;-60
2022/03/04 11:32:32;;;;;;;11.10;3.40;;;;;;;;;;5000328;28;20037;-60
2022/03/04 11:34:58;;;;;;;6.57;2.55;;;;;;;;;;5002541;28;20497;-59
2022/03/04 11:37:24;;;;;;;8.60;3.75;;;;;;;;;;5004631;28;20117;-62
2022/03/04 11:40:01;;;;;;;9.70;3.08;;;;;;;;;;5000177;28;20551;-60
2022/03/04 11:42:35;;;;;;;5.10;2.97;;;;;;;;;;5012986;28;20059;-59
2022/03/04 11:45:02;;;;;;;5.55;2.78;;;;;;;;;;4993065;28;20052;-61
2022/03/04 11:47:36;;;;;;;5.82;2.80;;;;;;;;;;4995562;28;20062;-59
2022/03/04 11:50:22;;;;;;;6.03;2.85;;;;;;;;;;4998641;28;20380;-60
2022/03/04 11:52:48;;;;;;;2.97;1.50;;;;;;;;;;4996720;28;20042;-59
2022/03/04 11:55:20;;;;;;;5.30;2.40;;;;;;;;;;4992686;28;20396;-59
2022/03/04 11:57:47;;;;;;;5.82;2.33;;;;;;;;;;4994759;28;20068;-58
2022/03/04 12:00:14;;;;;;;5.57;3.05;;;;;;;;;;4993185;28;20049;-61
2022/03/04 12:02:43;;;;;;;6.82;3.03;;;;;;;;;;4990726;28;20569;-58
2022/03/04 12:05:18;;;;;;;6.03;2.45;;;;;;;;;;5023607;28;20057;-59
2022/03/04 12:07:48;;;;;;;9.32;2.80;;;;;;;;;;4991328;28;20857;-59
2022/03/04 12:10:20;;;;;;;3.80;1.92;;;;;;;;;;5019887;28;20630;-58
2022/03/04 12:13:04;;;;;;;1.95;1.20;;;;;;;;;;4992417;28;20142;-59
2022/03/04 12:15:38;;;;;;;7.78;3.00;;;;;;;;;;4992722;28;20389;-60
2022/03/04 12:18:25;;;;;;;5.30;2.20;;;;;;;;;;4993402;28;20108;-58
2022/03/04 12:20:56;;;;;;;8.48;3.97;;;;;;;;;;4992494;28;20125;-58
2022/03/04 12:23:28;;;;;;;6.68;3.15;;;;;;;;;;4993346;28;20057;-58
2022/03/04 12:25:57;;;;;;;8.57;3.58;;;;;;;;;;4992660;28;20080;-58
2022/03/04 12:28:27;;;;;;;7.95;3.88;;;;;;;;;;5022039;28;20530;-58
2022/03/04 12:31:03;;;;;;;6.00;3.22;;;;;;;;;;4985315;28;20050;-57
2022/03/04 12:33:42;;;;;;;4.82;1.92;;;;;;;;;;4993606;28;20167;-58
2022/03/04 12:36:11;;;;;;;3.85;2.63;;;;;;;;;;4995187;28;20057;-59
2022/03/04 12:38:41;;;;;;;5.68;3.00;;;;;;;;;;4993232;28;20042;-57
2022/03/04 12:41:15;;;;;;;3.20;1.75;;;;;;;;;;4993588;28;20136;-59
2022/03/04 12:43:42;;;;;;;6.65;2.75;;;;;;;;;;4993503;28;20636;-60
2022/03/04 12:46:11;;;;;;;6.95;2.78;;;;;;;;;;4993446;28;20042;-56
2022/03/04 12:48:37;;;;;;;7.80;3.05;;;;;;;;;;4981768;28;20114;-59
2022/03/04 12:51:19;;;;;;;9.75;4.50;;;;;;;;;;4980617;28;20603;-59
2022/03/04 12:53:45;;;;;;;9.30;3.47;;;;;;;;;;4961945;28;20111;-59
2022/03/04 12:56:31;;;;;;;4.50;1.88;;;;;;;;;;4998523;28;20045;-58
2022/03/04 12:59:01;;;;;;;3.20;1.80;;;;;;;;;;5000997;28;20044;-60
2022/03/04 13:01:28;;;;;;;6.30;2.20;;;;;;;;;;4999827;28;20037;-59
2022/03/04 13:03:55;;;;;;;9.68;2.95;;;;;;;;;;5001183;28;20148;-60
2022/03/04 13:06:22;;;;;;;5.30;2.38;;;;;;;;;;4990105;28;20059;-58
2022/03/04 13:08:52;;;;;;;5.57;2.05;;;;;;;;;;5001966;28;20301;-60
2022/03/04 13:11:20;;;;;;;5.30;2.97;;;;;;;;;;5002402;28;20067;-59
2022/03/04 13:14:05;;;;;;;32.72;2.50;;;;;;;;;;5002577;28;20064;-59
2022/03/04 13:16:42;;;;;;;4.65;2.30;;;;;;;;;;5000451;28;20045;-58
2022/03/04 13:19:10;;;;;;;8.52;2.95;;;;;;;;;;4942787;28;20051;-58
2022/03/04 13:21:36;;;;;;;7.28;3.80;;;;;;;;;;4942214;28;20561;-60
2022/03/04 13:24:09;;;;;;;5.68;3.35;;;;;;;;;;4941326;28;20126;-58
2022/03/04 13:26:36;;;;;;;5.47;2.80;;;;;;;;;;4941073;28;20104;-58
2022/03/04 13:29:05;;;;;;;9.55;3.38;;;;;;;;;;4939534;28;20047;-59
2022/03/04 13:31:36;;;;;;;6.55;2.58;;;;;;;;;;4929726;28;20717;-58
2022/03/04 13:34:05;;;;;;;4.70;2.60;;;;;;;;;;4944296;28;20109;-60
2022/03/04 13:36:37;;;;;;;4.32;2.15;;;;;;;;;;4947471;28;20097;-60
2022/03/04 13:39:07;;;;;;;6.45;3.22;;;;;;;;;;4948328;28;20114;-59
2022/03/04 13:41:33;;;;;;;5.80;3.05;;;;;;;;;;4949005;28;20054;-58
2022/03/04 13:44:05;;;;;;;10.35;5.07;;;;;;;;;;4967696;28;20171;-59
2022/03/04 13:46:31;;;;;;;9.00;3.75;;;;;;;;;;4948649;28;20481;-57
2022/03/04 13:48:58;;;;;;;6.57;2.60;;;;;;;;;;4948349;28;20062;-59
2022/03/04 13:51:24;;;;;;;5.50;2.47;;;;;;;;;;4947136;28;20709;-58
2022/03/04 13:53:59;;;;;;;5.60;2.53;;;;;;;;;;4949609;28;20033;-57
2022/03/04 13:56:37;;;;;;;2.70;1.58;;;;;;;;;;4966521;28;20376;-58
2022/03/04 13:59:03;;;;;;;6.85;2.15;;;;;;;;;;4972363;28;20812;-58
2022/03/04 14:01:30;;;;;;;8.90;3.35;;;;;;;;;;4969879;28;20122;-57
2022/03/04 14:03:57;;;;;;;8.27;3.03;;;;;;;;;;4972843;28;20051;-57
2022/03/04 14:06:24;;;;;;;7.65;3.33;;;;;;;;;;4972068;28;20040;-59
2022/03/04 14:08:50;;;;;;;8.52;3.15;;;;;;;;;;4972010;28;20066;-58
2022/03/04 14:11:16;;;;;;;5.20;2.75;;;;;;;;;;4987276;28;20621;-58
2022/03/04 14:13:43;;;;;;;11.82;5.07;;;;;;;;;;4991717;28;20226;-58
2022/03/04 14:16:10;;;;;;;23.33;5.72;;;;;;;;;;5008819;28;20041;-59
2022/03/04 14:18:39;;;;;;;13.40;3.80;;;;;;;;;;4990237;28;20153;-59
2022/03/04 14:21:07;;;;;;;9.23;4.25;;;;;;;;;;4991857;28;20041;-59
2022/03/04 14:23:37;;;;;;;5.32;2.45;;;;;;;;;;4986290;28;20030;-60
2022/03/04 14:26:07;;;;;;;7.55;3.30;;;;;;;;;;4994414;28;20038;-58
2022/03/04 14:28:33;;;;;;;9.95;4.95;;;;;;;;;;4995692;28;20043;-59
2022/03/04 14:30:59;;;;;;;12.57;4.07;;;;;;;;;;4991906;28;20112;-57
2022/03/04 14:33:26;;;;;;;12.18;4.72;;;;;;;;;;4992252;28;20031;-59
2022/03/04 14:35:54;;;;;;;7.45;3.63;;;;;;;;;;4993875;28;20129;-60
2022/03/04 14:38:20;;;;;;;13.38;3.03;;;;;;;;;;4993576;28;20133;-59
2022/03/04 14:40:47;;;;;;;5.30;2.72;;;;;;;;;;4990510;28;20152;-58
2022/03/04 14:43:13;;;;;;;6.47;2.97;;;;;;;;;;4991669;28;20136;-58